Airfield :
LOGIN :

Register | Disclaimer

   EN    FR    IT 

 










Legend :    VFR   Marginal VFR   IFR   Intensive IFR   Very Intensive IFR
Visi :
Ceiling :
>= 8 km
>= 3000ft
5 to 8 km
1000 to 3000 ft
1500m to 5 km
500 to 1000 ft
800 to 1500m
200 to 500 ft
< 800m
< 200 ft
Symbols :   Thunderstorms  Fog  Heavy snow  Heavy precipitations  Wind > 20 kt
SIGMETs :     Misc.  Thunderstorms  Icing  Turbulence  Mountain Waves  Volcanic Ashes






- Airport Elevation : 290 ft
- IATA code : ACI


EGJA - Alderney

CURRENT METAR :
  • 031420Z 26009KT 220V290 9999 FEW008 17/13 Q1014

EXPIRED METARs :
  • 031350Z 26009KT 9999 FEW008 17/14 Q1013
  • 031320Z 27009KT 9999 FEW008 SCT024 16/14 Q1014
  • 031250Z 25008KT 200V290 9999 FEW008 SCT024 17/14 Q1014
  • 031220Z 26009KT 9999 FEW008 17/13 Q1014
  • 031150Z 23008KT 210V270 9999 FEW006 17/14 Q1014

TAF TAF EGJA
Valid from the 03 at 12:00 until the 03 at 21:00 UTC


031104Z 0312/0321 23006KT 9999 SCT004
PROB30
TEMPO 0312/0321 6000 SHRA BKN004 BKN008TCU



MET'MAP, your aeronautical weather chart ! - Copyright ORBIFLY December 2007 - Disclaimer

ORBIFLY MET'MAP TEAM :

Programming & Development : Alexandra Zaïnal
Concept & original design : Baudouin d'Aumeries
Assistance for programming : Marc-Olivier Méhu
Technical & hardware support : Manuel Goepfert

Contact : metmap@orbifly.com




SOURCES & CREDITS :

   NOAA